createdAt,value
2023-11-01T00:02:45.412Z,97349.41
2023-11-01T00:05:49.350Z,97340.69
2023-11-01T00:08:51.448Z,97338.94
2023-11-01T00:11:55.357Z,97343.50
2023-11-01T00:15:00.194Z,97348.06
2023-11-01T00:18:02.014Z,97355.28
2023-11-01T00:21:05.149Z,97358.91
2023-11-01T00:24:07.176Z,97354.53
2023-11-01T00:27:09.378Z,97354.69
2023-11-01T00:30:12.996Z,97363.63
2023-11-01T00:33:14.941Z,97365.50
2023-11-01T00:36:17.042Z,97374.63
2023-11-01T00:39:19.124Z,97364.94
2023-11-01T00:42:21.187Z,97362.28
2023-11-01T00:45:24.754Z,97374.72
2023-11-01T00:48:26.545Z,97376.53
2023-11-01T00:51:28.465Z,97372.16
2023-11-01T00:54:30.668Z,97371.38
2023-11-01T00:57:34.063Z,97358.94
2023-11-01T01:00:38.253Z,97359.78
2023-11-01T01:03:40.604Z,97348.22
2023-11-01T01:06:42.736Z,97358.78
2023-11-01T01:09:45.108Z,97350.88
2023-11-01T01:12:47.811Z,97350.88
2023-11-01T01:15:51.850Z,97349.94
2023-11-01T01:18:53.903Z,97351.47
2023-11-01T01:21:56.041Z,97337.97
2023-11-01T01:24:58.288Z,97334.19
2023-11-01T01:28:00.574Z,97340.28
2023-11-01T01:31:04.884Z,97341.88
2023-11-01T01:34:07.097Z,97341.88
2023-11-01T01:37:09.385Z,97329.53
2023-11-01T01:40:11.980Z,97336.47
2023-11-01T01:43:20.026Z,97330.94
2023-11-01T01:46:25.511Z,97322.97
2023-11-01T01:49:33.118Z,97314.94
2023-11-01T01:52:39.586Z,97312.94
2023-11-01T01:55:41.725Z,97316.34
2023-11-01T01:58:46.017Z,97318.75
2023-11-01T02:01:50.073Z,97308.00
2023-11-01T02:04:52.130Z,97303.44
2023-11-01T02:07:55.175Z,97297.25
2023-11-01T02:10:57.010Z,97298.13
2023-11-01T02:13:59.275Z,97296.41
2023-11-01T02:17:02.616Z,97292.03
2023-11-01T02:20:05.739Z,97287.56
2023-11-01T02:23:09.984Z,97296.22
2023-11-01T02:26:14.770Z,97280.13
2023-11-01T02:29:19.651Z,97278.44
2023-11-01T02:32:23.917Z,97282.91
2023-11-01T02:35:26.332Z,97276.06
2023-11-01T02:38:28.592Z,97276.63
2023-11-01T02:41:31.993Z,97272.06
2023-11-01T02:44:35.924Z,97275.66
2023-11-01T02:47:38.580Z,97275.66
2023-11-01T02:50:43.212Z,97263.72
2023-11-01T02:53:45.477Z,97261.41
2023-11-01T02:56:48.999Z,97267.78
2023-11-01T02:59:50.896Z,97259.72
2023-11-01T03:02:55.767Z,97250.88
2023-11-01T03:05:57.793Z,97255.25
2023-11-01T03:09:00.297Z,97260.47
2023-11-01T03:12:06.402Z,97261.31
2023-11-01T03:15:09.268Z,97262.94
2023-11-01T03:18:11.143Z,97249.66
2023-11-01T03:21:13.168Z,97256.56
2023-11-01T03:24:15.051Z,97260.94
2023-11-01T03:27:18.402Z,97253.81
2023-11-01T03:30:24.965Z,97250.28
2023-11-01T03:33:26.898Z,97242.41
2023-11-01T03:36:28.797Z,97252.31
2023-11-01T03:39:30.616Z,97258.66
2023-11-01T03:42:34.390Z,97253.34
2023-11-01T03:45:36.494Z,97249.81
2023-11-01T03:48:41.697Z,97254.22
2023-11-01T03:51:46.491Z,97256.78
2023-11-01T03:54:48.521Z,97249.53
2023-11-01T03:57:51.978Z,97256.56
2023-11-01T04:00:57.679Z,97255.72
2023-11-01T04:03:59.655Z,97251.47
2023-11-01T04:07:01.883Z,97248.69
2023-11-01T04:10:04.986Z,97250.41
2023-11-01T04:13:09.675Z,97243.16
2023-11-01T04:16:11.997Z,97238.69
2023-11-01T04:19:14.214Z,97230.72
2023-11-01T04:22:16.047Z,97238.69
2023-11-01T04:25:18.276Z,97227.31
2023-11-01T04:28:21.831Z,97223.03
2023-11-01T04:31:27.874Z,97229.38
2023-11-01T04:34:29.995Z,97227.66
2023-11-01T04:37:32.309Z,97225.00
2023-11-01T04:40:35.572Z,97214.03
2023-11-01T04:43:38.889Z,97231.38
2023-11-01T04:46:41.704Z,97219.91
2023-11-01T04:49:44.872Z,97222.44
2023-11-01T04:52:46.997Z,97215.22
2023-11-01T04:55:49.290Z,97208.09
2023-11-01T04:58:52.860Z,97206.38
2023-11-01T05:01:55.208Z,97202.00
2023-11-01T05:04:57.162Z,97210.09
2023-11-01T05:07:59.279Z,97200.31
2023-11-01T05:11:01.425Z,97202.13
2023-11-01T05:14:04.824Z,97202.13
2023-11-01T05:17:07.764Z,97196.91
2023-11-01T05:20:14.043Z,97201.16
2023-11-01T05:23:16.509Z,97199.25
2023-11-01T05:26:19.236Z,97196.59
2023-11-01T05:29:22.696Z,97185.94
2023-11-01T05:32:25.669Z,97180.56
2023-11-01T05:35:27.645Z,97177.91
2023-11-01T05:38:29.609Z,97187.69
2023-11-01T05:41:31.823Z,97176.94
2023-11-01T05:44:35.350Z,97182.25
2023-11-01T05:47:37.604Z,97167.03
2023-11-01T05:50:42.494Z,97176.63
2023-11-01T05:53:46.994Z,97169.50
2023-11-01T05:56:49.044Z,97175.69
2023-11-01T05:59:52.783Z,97170.47
2023-11-01T06:02:57.236Z,97168.66
2023-11-01T06:05:59.869Z,97164.28
2023-11-01T06:09:02.493Z,97164.19
2023-11-01T06:12:07.630Z,97167.78
2023-11-01T06:15:12.952Z,97168.66
2023-11-01T06:18:15.385Z,97173.97
2023-11-01T06:21:17.287Z,97172.06
2023-11-01T06:24:20.273Z,97165.03
2023-11-01T06:27:24.711Z,97169.41
2023-11-01T06:30:30.354Z,97165.78
2023-11-01T06:33:32.397Z,97168.44
2023-11-01T06:36:34.735Z,97176.34
2023-11-01T06:39:37.013Z,97164.81
2023-11-01T06:42:38.966Z,97170.81
2023-11-01T06:45:42.192Z,97170.81
2023-11-01T06:48:44.716Z,97161.78
2023-11-01T06:51:46.796Z,97164.44
2023-11-01T06:54:49.301Z,97162.53
2023-11-01T06:57:52.822Z,97159.75
2023-11-01T07:00:56.758Z,97150.81
2023-11-01T07:03:59.083Z,97155.22
2023-11-01T07:07:01.285Z,97155.97
2023-11-01T07:10:04.359Z,97159.50
2023-11-01T07:13:06.446Z,97148.63
2023-11-01T07:16:10.005Z,97150.44
2023-11-01T07:19:12.282Z,97159.28
2023-11-01T07:22:14.247Z,97157.47
2023-11-01T07:25:17.059Z,97146.72
2023-11-01T07:28:20.929Z,97141.09
2023-11-01T07:31:24.582Z,97141.00
2023-11-01T07:34:26.361Z,97146.97
2023-11-01T07:37:28.495Z,97137.06
2023-11-01T07:40:30.761Z,97133.44
2023-11-01T07:43:33.065Z,97131.56
2023-11-01T07:46:36.663Z,97140.41
2023-11-01T07:49:38.965Z,97141.34
2023-11-01T07:52:41.296Z,97145.63
2023-11-01T07:55:43.423Z,97148.28
2023-11-01T07:58:45.369Z,97134.97
2023-11-01T08:01:49.184Z,97141.16
2023-11-01T08:04:54.946Z,97144.78
2023-11-01T08:07:57.015Z,97143.06
2023-11-01T08:10:59.076Z,97135.06
2023-11-01T08:14:01.156Z,97143.81
2023-11-01T08:17:04.750Z,97135.81
2023-11-01T08:20:08.260Z,97136.56
2023-11-01T08:23:10.632Z,97143.50
2023-11-01T08:26:15.750Z,97139.03
2023-11-01T08:29:17.884Z,97146.81
2023-11-01T08:32:21.177Z,97138.84
2023-11-01T08:35:24.317Z,97138.84
2023-11-01T08:38:26.385Z,97143.19
2023-11-01T08:41:33.501Z,97145.03
2023-11-01T08:44:35.624Z,97135.59
2023-11-01T08:47:40.917Z,97135.97
2023-11-01T08:50:43.950Z,97142.03
2023-11-01T08:53:46.061Z,97138.41
2023-11-01T08:56:48.332Z,97138.19
2023-11-01T08:59:50.988Z,97144.31
2023-11-01T09:02:55.813Z,97129.16
2023-11-01T09:05:59.284Z,97142.50
2023-11-01T09:09:01.312Z,97144.09
2023-11-01T09:12:03.695Z,97135.13
2023-11-01T09:15:05.954Z,97136.72
2023-11-01T09:18:10.037Z,97136.44
2023-11-01T09:21:11.957Z,97139.75
2023-11-01T09:24:15.909Z,97138.50
2023-11-01T09:27:18.341Z,97129.31
2023-11-01T09:30:20.698Z,97130.81
2023-11-01T09:33:24.722Z,97135.72
2023-11-01T09:36:27.163Z,97125.59
2023-11-01T09:39:29.719Z,97125.41
2023-11-01T09:42:31.999Z,97128.59
2023-11-01T09:45:34.275Z,97123.03
2023-11-01T09:48:38.652Z,97122.41
2023-11-01T09:51:43.748Z,97119.34
2023-11-01T09:54:48.530Z,97124.06
2023-11-01T09:57:50.641Z,97123.28
2023-11-01T10:00:57.278Z,97125.63
2023-11-01T10:04:02.606Z,97126.69
2023-11-01T10:07:05.846Z,97119.94
2023-11-01T10:10:08.835Z,97113.31
2023-11-01T10:13:11.309Z,97112.88
2023-11-01T10:16:14.280Z,97112.41
2023-11-01T10:19:17.708Z,97108.59
2023-11-01T10:22:20.031Z,97114.06
2023-11-01T10:25:22.251Z,97112.56
2023-11-01T10:28:24.730Z,97112.97
2023-11-01T10:31:26.647Z,97110.69
2023-11-01T10:34:30.727Z,97102.97
2023-11-01T10:37:32.628Z,97099.69
2023-11-01T10:40:35.529Z,97108.31
2023-11-01T10:43:37.464Z,97099.69
2023-11-01T10:46:39.709Z,97096.78
2023-11-01T10:49:44.648Z,97087.66
2023-11-01T10:52:48.031Z,97088.53
2023-11-01T10:55:51.805Z,97082.13
2023-11-01T10:58:56.128Z,97083.69
2023-11-01T11:02:02.183Z,97075.25
2023-11-01T11:05:08.805Z,97076.81
2023-11-01T11:08:11.689Z,97075.38
2023-11-01T11:11:18.584Z,97058.44
2023-11-01T11:14:35.391Z,97058.78
2023-11-01T11:17:39.681Z,97062.44
2023-11-01T11:20:43.228Z,97052.72
2023-11-01T11:23:45.932Z,97053.69
2023-11-01T11:26:48.229Z,97052.84
2023-11-01T11:29:50.192Z,97046.16
2023-11-01T11:33:06.602Z,97045.16
2023-11-01T11:36:15.073Z,97036.03
2023-11-01T11:39:17.335Z,97044.53
2023-11-01T11:42:46.331Z,97045.25
2023-11-01T11:45:48.471Z,97042.25
2023-11-01T11:48:53.728Z,97036.50
2023-11-01T11:51:58.078Z,97035.66
2023-11-01T11:55:00.278Z,97045.28
2023-11-01T11:58:02.268Z,97037.03
2023-11-01T12:01:07.970Z,97028.75
2023-11-01T12:04:10.673Z,97015.97
2023-11-01T12:07:20.201Z,97019.16
2023-11-01T12:10:22.308Z,97011.47
2023-11-01T12:13:39.498Z,97008.44
2023-11-01T12:16:41.932Z,96997.88
2023-11-01T12:19:44.912Z,97000.91
2023-11-01T12:22:48.097Z,96989.97
2023-11-01T12:25:49.864Z,96986.63
2023-11-01T12:28:51.684Z,96975.66
2023-11-01T12:32:00.241Z,96965.41
2023-11-01T12:35:06.040Z,96970.16
2023-11-01T12:38:19.004Z,96974.91
2023-11-01T12:41:21.026Z,96979.47
2023-11-01T12:44:26.237Z,96971.53
2023-11-01T12:47:32.821Z,96965.38
2023-11-01T12:50:36.853Z,96960.75
2023-11-01T12:53:41.474Z,96965.13
2023-11-01T12:56:43.560Z,96971.25
2023-11-01T12:59:46.545Z,96956.19
2023-11-01T13:02:48.765Z,96950.84
2023-11-01T13:05:51.808Z,96959.84
2023-11-01T13:08:55.718Z,96941.91
2023-11-01T13:11:58.642Z,96950.41
2023-11-01T13:15:00.940Z,96941.41
2023-11-01T13:18:02.995Z,96936.88
2023-11-01T13:21:05.139Z,96926.88
2023-11-01T13:24:09.016Z,96923.13
2023-11-01T13:27:11.229Z,96919.47
2023-11-01T13:30:15.903Z,96912.91
2023-11-01T13:33:18.232Z,96913.94
2023-11-01T13:36:20.368Z,96913.81
2023-11-01T13:39:24.502Z,96910.03
2023-11-01T13:42:26.664Z,96906.78
2023-11-01T13:45:28.465Z,96904.72
2023-11-01T13:48:30.855Z,96898.78
2023-11-01T13:51:32.925Z,96886.59
2023-11-01T13:54:36.285Z,96901.94
2023-11-01T13:57:38.282Z,96889.41
2023-11-01T14:00:40.695Z,96895.00
2023-11-01T14:03:44.362Z,96892.16
2023-11-01T14:06:47.627Z,96888.50
2023-11-01T14:09:53.120Z,96889.63
2023-11-01T14:12:55.245Z,96883.69
2023-11-01T14:15:58.582Z,96887.09
2023-11-01T14:19:00.613Z,96883.34
2023-11-01T14:22:02.570Z,96885.06
2023-11-01T14:25:06.828Z,96874.63
2023-11-01T14:28:08.744Z,96875.72
2023-11-01T14:31:10.764Z,96874.25
2023-11-01T14:34:12.912Z,96871.97
2023-11-01T14:37:15.175Z,96859.44
2023-11-01T14:40:18.404Z,96863.34
2023-11-01T14:43:20.870Z,96852.75
2023-11-01T14:46:23.375Z,96860.06
2023-11-01T14:49:26.393Z,96847.75
2023-11-01T14:52:29.356Z,96839.75
2023-11-01T14:55:32.619Z,96840.13
2023-11-01T14:58:34.614Z,96831.84
2023-11-01T15:01:37.706Z,96836.81
2023-11-01T15:04:39.592Z,96834.28
2023-11-01T15:07:41.678Z,96848.63
2023-11-01T15:10:44.761Z,96840.97
2023-11-01T15:13:46.740Z,96837.47
2023-11-01T15:16:53.370Z,96836.00
2023-11-01T15:19:55.227Z,96830.16
2023-11-01T15:22:57.685Z,96824.09
2023-11-01T15:26:08.197Z,96824.59
2023-11-01T15:29:13.033Z,96822.63
2023-11-01T15:32:16.329Z,96824.72
2023-11-01T15:35:18.792Z,96825.44
2023-11-01T15:38:20.707Z,96841.09
2023-11-01T15:41:26.030Z,96829.06
2023-11-01T15:44:27.781Z,96822.63
2023-11-01T15:47:29.840Z,96820.47
2023-11-01T15:50:31.741Z,96822.88
2023-11-01T15:53:35.384Z,96818.88
2023-11-01T15:56:38.962Z,96811.59
2023-11-01T15:59:41.061Z,96810.84
2023-11-01T16:02:43.129Z,96810.72
2023-11-01T16:05:47.216Z,96803.09
2023-11-01T16:08:49.734Z,96794.94
2023-11-01T16:11:53.760Z,96799.56
2023-11-01T16:14:55.751Z,96803.56
2023-11-01T16:17:57.689Z,96786.69
2023-11-01T16:21:00.246Z,96789.00
2023-11-01T16:24:03.127Z,96785.75
2023-11-01T16:27:06.702Z,96785.97
2023-11-01T16:30:09.240Z,96785.00
2023-11-01T16:33:11.172Z,96789.34
2023-11-01T16:36:13.403Z,96797.16
2023-11-01T16:39:15.423Z,96792.41
2023-11-01T16:42:18.880Z,96784.53
2023-11-01T16:45:20.649Z,96789.00
2023-11-01T16:48:23.416Z,96779.19
2023-11-01T16:51:25.337Z,96774.69
2023-11-01T16:54:27.565Z,96770.31
2023-11-01T16:57:31.186Z,96770.78
2023-11-01T17:00:33.509Z,96772.41
2023-11-01T17:03:35.866Z,96770.44
2023-11-01T17:06:38.673Z,96767.91
2023-11-01T17:09:40.771Z,96757.09
2023-11-01T17:12:44.307Z,96769.09
2023-11-01T17:15:46.122Z,96769.94
2023-11-01T17:18:48.043Z,96776.75
2023-11-01T17:21:50.527Z,96786.94
2023-11-01T17:24:52.424Z,96784.66
2023-11-01T17:27:56.004Z,96779.44
2023-11-01T17:30:57.964Z,96781.97
2023-11-01T17:33:59.788Z,96775.28
2023-11-01T17:37:02.540Z,96780.63
2023-11-01T17:40:08.485Z,96779.78
2023-11-01T17:43:14.380Z,96783.41
2023-11-01T17:46:19.815Z,96782.31
2023-11-01T17:49:40.566Z,96794.22
2023-11-01T17:52:44.069Z,96796.38
2023-11-01T17:55:46.160Z,96798.31
2023-11-01T17:58:50.866Z,96794.19
2023-11-01T18:01:52.747Z,96789.56
2023-11-01T18:04:54.877Z,96791.88
2023-11-01T18:07:56.679Z,96779.50
2023-11-01T18:10:59.109Z,96780.34
2023-11-01T18:14:02.391Z,96776.22
2023-11-01T18:17:10.017Z,96772.97
2023-11-01T18:20:16.547Z,96774.78
2023-11-01T18:23:18.732Z,96765.44
2023-11-01T18:26:21.033Z,96754.16
2023-11-01T18:29:24.602Z,96757.94
2023-11-01T18:32:27.031Z,96749.09
2023-11-01T18:35:33.111Z,96755.50
2023-11-01T18:38:47.245Z,96750.41
2023-11-01T18:41:49.896Z,96743.63
2023-11-01T18:44:53.512Z,96743.25
2023-11-01T18:47:57.716Z,96748.56
2023-11-01T18:50:59.770Z,96733.28
2023-11-01T18:54:01.496Z,96743.25
2023-11-01T18:57:05.510Z,96740.81
2023-11-01T19:00:11.245Z,96744.34
2023-11-01T19:03:18.336Z,96731.84
2023-11-01T19:06:20.535Z,96730.38
2023-11-01T19:09:22.570Z,96725.06
2023-11-01T19:12:27.161Z,96720.19
2023-11-01T19:15:48.244Z,96728.78
2023-11-01T19:18:54.871Z,96727.94
2023-11-01T19:21:57.501Z,96731.59
2023-11-01T19:25:00.504Z,96726.25
2023-11-01T19:28:03.486Z,96722.25
2023-11-01T19:31:05.803Z,96713.16
2023-11-01T19:34:09.321Z,96723.81
2023-11-01T19:37:11.621Z,96717.03
2023-11-01T19:40:13.731Z,96704.69
2023-11-01T19:43:15.583Z,96693.16
2023-11-01T19:46:20.889Z,96699.44
2023-11-01T19:49:24.293Z,96682.94
2023-11-01T19:52:26.144Z,96683.06
2023-11-01T19:55:28.266Z,96677.97
2023-11-01T19:58:30.598Z,96668.25
2023-11-01T20:01:34.364Z,96656.84
2023-11-01T20:04:40.876Z,96656.72
2023-11-01T20:07:43.179Z,96665.81
2023-11-01T20:10:45.373Z,96663.03
2023-11-01T20:13:47.554Z,96662.69
2023-11-01T20:16:49.685Z,96653.69
2023-11-01T20:19:53.186Z,96654.66
2023-11-01T20:22:55.582Z,96644.13
2023-11-01T20:25:57.588Z,96654.41
2023-11-01T20:29:00.703Z,96654.66
2023-11-01T20:32:02.797Z,96654.81
2023-11-01T20:35:06.387Z,96650.31
2023-11-01T20:38:08.726Z,96651.50
2023-11-01T20:41:10.896Z,96660.75
2023-11-01T20:44:13.261Z,96647.28
2023-11-01T20:47:16.997Z,96646.69
2023-11-01T20:50:20.504Z,96639.63
2023-11-01T20:53:22.710Z,96642.06
2023-11-01T20:56:24.907Z,96636.00
2023-11-01T20:59:29.474Z,96637.06
2023-11-01T21:02:31.578Z,96620.47
2023-11-01T21:05:35.139Z,96624.22
2023-11-01T21:08:37.276Z,96622.66
2023-11-01T21:11:39.216Z,96619.50
2023-11-01T21:14:42.257Z,96607.13
2023-11-01T21:17:45.545Z,96617.81
2023-11-01T21:20:49.150Z,96616.84
2023-11-01T21:23:51.027Z,96618.06
2023-11-01T21:26:53.039Z,96604.97
2023-11-01T21:29:55.388Z,96604.47
2023-11-01T21:32:58.315Z,96598.66
2023-11-01T21:36:02.327Z,96591.72
2023-11-01T21:39:05.388Z,96590.28
2023-11-01T21:42:07.396Z,96589.19
2023-11-01T21:45:11.638Z,96581.69
2023-11-01T21:48:16.370Z,96577.94
2023-11-01T21:51:19.906Z,96571.09
2023-11-01T21:54:24.028Z,96564.56
2023-11-01T21:57:27.659Z,96560.78
2023-11-01T22:00:29.785Z,96570.22
2023-11-01T22:03:40.757Z,96575.19
2023-11-01T22:06:45.162Z,96579.03
2023-11-01T22:09:47.823Z,96569.97
2023-11-01T22:12:50.466Z,96571.03
2023-11-01T22:15:52.330Z,96563.53
2023-11-01T22:18:55.242Z,96560.16
2023-11-01T22:21:58.629Z,96551.91
2023-11-01T22:25:03.534Z,96555.53
2023-11-01T22:28:08.401Z,96541.69
2023-11-01T22:31:14.748Z,96539.63
2023-11-01T22:34:16.847Z,96533.69
2023-11-01T22:37:20.877Z,96535.25
2023-11-01T22:40:22.767Z,96542.59
2023-11-01T22:43:25.055Z,96533.50
2023-11-01T22:46:28.812Z,96526.84
2023-11-01T22:49:31.256Z,96535.16
2023-11-01T22:52:35.057Z,96528.97
2023-11-01T22:55:41.426Z,96523.88
2023-11-01T22:58:44.465Z,96517.97
2023-11-01T23:01:46.543Z,96511.06
2023-11-01T23:04:50.289Z,96502.00
2023-11-01T23:07:57.382Z,96506.31
2023-11-01T23:10:59.266Z,96506.53
2023-11-01T23:14:01.677Z,96500.69
2023-11-01T23:17:05.324Z,96489.09
2023-11-01T23:20:07.814Z,96488.25
2023-11-01T23:23:12.163Z,96483.16
2023-11-01T23:26:14.348Z,96474.56
2023-11-01T23:29:19.171Z,96477.56
2023-11-01T23:32:21.852Z,96477.91
2023-11-01T23:35:23.798Z,96475.47
2023-11-01T23:38:29.507Z,96473.75
2023-11-01T23:41:42.223Z,96466.41
2023-11-01T23:44:44.706Z,96470.13
2023-11-01T23:47:50.182Z,96471.47
2023-11-01T23:50:52.356Z,96453.56
2023-11-01T23:53:56.173Z,96450.66
2023-11-01T23:56:58.085Z,96442.34
